sensor_id;sensor_type;location;lat;lon;timestamp;pressure;altitude;pressure_sealevel;temperature;humidity
60267;BME280;46125;61.360;-149.532;2023-06-22T00:00:35;99722.86;;;19.53;63.44
60267;BME280;46125;61.360;-149.532;2023-06-22T00:03:03;99722.25;;;20.10;62.33
60267;BME280;46125;61.360;-149.532;2023-06-22T00:05:32;99720.88;;;19.97;61.71
60267;BME280;46125;61.360;-149.532;2023-06-22T00:08:03;99715.01;;;20.44;59.55
60267;BME280;46125;61.360;-149.532;2023-06-22T00:10:41;99717.92;;;19.44;62.28
60267;BME280;46125;61.360;-149.532;2023-06-22T00:13:10;99719.92;;;19.14;62.22
60267;BME280;46125;61.360;-149.532;2023-06-22T00:15:40;99716.52;;;20.39;58.56
60267;BME280;46125;61.360;-149.532;2023-06-22T00:18:10;99711.60;;;20.59;59.86
60267;BME280;46125;61.360;-149.532;2023-06-22T00:20:38;99709.71;;;21.32;58.64
60267;BME280;46125;61.360;-149.532;2023-06-22T00:23:07;99714.61;;;20.90;60.00
60267;BME280;46125;61.360;-149.532;2023-06-22T00:25:36;99710.12;;;20.79;60.10
60267;BME280;46125;61.360;-149.532;2023-06-22T00:28:06;99709.05;;;20.55;60.21
60267;BME280;46125;61.360;-149.532;2023-06-22T00:30:40;99707.29;;;20.71;60.68
60267;BME280;46125;61.360;-149.532;2023-06-22T00:33:08;99707.11;;;19.29;62.59
60267;BME280;46125;61.360;-149.532;2023-06-22T00:35:37;99705.75;;;20.33;60.37
60267;BME280;46125;61.360;-149.532;2023-06-22T00:38:05;99705.44;;;19.93;61.82
60267;BME280;46125;61.360;-149.532;2023-06-22T00:40:34;99701.60;;;18.85;64.95
60267;BME280;46125;61.360;-149.532;2023-06-22T00:43:02;99698.76;;;19.78;61.03
60267;BME280;46125;61.360;-149.532;2023-06-22T00:45:30;99700.26;;;19.04;64.13
60267;BME280;46125;61.360;-149.532;2023-06-22T00:47:59;99699.31;;;19.91;61.68
60267;BME280;46125;61.360;-149.532;2023-06-22T00:50:28;99695.93;;;20.31;61.02
60267;BME280;46125;61.360;-149.532;2023-06-22T00:53:00;99699.11;;;19.93;60.46
60267;BME280;46125;61.360;-149.532;2023-06-22T00:55:30;99696.51;;;20.69;59.34
60267;BME280;46125;61.360;-149.532;2023-06-22T00:57:58;99691.04;;;19.68;60.90
60267;BME280;46125;61.360;-149.532;2023-06-22T01:00:27;99685.64;;;20.37;60.15
60267;BME280;46125;61.360;-149.532;2023-06-22T01:02:55;99684.02;;;19.95;61.71
60267;BME280;46125;61.360;-149.532;2023-06-22T01:05:25;99683.40;;;18.14;66.71
60267;BME280;46125;61.360;-149.532;2023-06-22T01:08:00;99686.38;;;19.70;63.04
60267;BME280;46125;61.360;-149.532;2023-06-22T01:10:39;99681.43;;;18.03;65.99
60267;BME280;46125;61.360;-149.532;2023-06-22T01:13:16;99681.69;;;19.08;64.66
60267;BME280;46125;61.360;-149.532;2023-06-22T01:15:49;99682.69;;;19.68;64.25
60267;BME280;46125;61.360;-149.532;2023-06-22T01:18:19;99680.37;;;20.11;62.39
60267;BME280;46125;61.360;-149.532;2023-06-22T01:20:51;99680.77;;;18.51;64.72
60267;BME280;46125;61.360;-149.532;2023-06-22T01:23:42;99681.68;;;18.19;66.21
60267;BME280;46125;61.360;-149.532;2023-06-22T01:26:20;99673.88;;;18.68;64.22
60267;BME280;46125;61.360;-149.532;2023-06-22T01:28:52;99672.38;;;17.22;69.01
60267;BME280;46125;61.360;-149.532;2023-06-22T01:31:25;99670.85;;;17.08;68.82
60267;BME280;46125;61.360;-149.532;2023-06-22T01:33:57;99671.22;;;16.71;69.96
60267;BME280;46125;61.360;-149.532;2023-06-22T01:36:27;99669.96;;;17.75;67.61
60267;BME280;46125;61.360;-149.532;2023-06-22T01:38:58;99671.06;;;19.29;63.50
60267;BME280;46125;61.360;-149.532;2023-06-22T01:41:28;99667.61;;;18.18;68.31
60267;BME280;46125;61.360;-149.532;2023-06-22T01:44:03;99663.61;;;18.70;67.94
60267;BME280;46125;61.360;-149.532;2023-06-22T01:46:34;99660.48;;;18.94;64.83
60267;BME280;46125;61.360;-149.532;2023-06-22T01:49:03;99661.40;;;19.99;60.45
60267;BME280;46125;61.360;-149.532;2023-06-22T01:51:32;99667.40;;;16.62;69.03
60267;BME280;46125;61.360;-149.532;2023-06-22T01:54:01;99667.14;;;17.83;65.08
60267;BME280;46125;61.360;-149.532;2023-06-22T01:56:30;99665.26;;;18.09;63.51
60267;BME280;46125;61.360;-149.532;2023-06-22T01:59:03;99668.50;;;19.64;61.64
60267;BME280;46125;61.360;-149.532;2023-06-22T02:01:38;99670.60;;;19.58;61.81
60267;BME280;46125;61.360;-149.532;2023-06-22T02:04:17;99671.69;;;20.67;59.41
60267;BME280;46125;61.360;-149.532;2023-06-22T02:06:50;99668.98;;;19.84;59.25
60267;BME280;46125;61.360;-149.532;2023-06-22T02:09:21;99662.07;;;18.10;59.48
60267;BME280;46125;61.360;-149.532;2023-06-22T02:11:52;99664.86;;;19.29;58.43
60267;BME280;46125;61.360;-149.532;2023-06-22T02:14:22;99665.30;;;19.07;62.24
60267;BME280;46125;61.360;-149.532;2023-06-22T02:16:52;99661.06;;;21.10;57.64
60267;BME280;46125;61.360;-149.532;2023-06-22T02:19:24;99661.38;;;20.52;56.26
60267;BME280;46125;61.360;-149.532;2023-06-22T02:21:52;99659.02;;;19.93;58.23
60267;BME280;46125;61.360;-149.532;2023-06-22T02:24:21;99660.93;;;20.43;58.23
60267;BME280;46125;61.360;-149.532;2023-06-22T02:26:50;99661.15;;;20.20;60.04
60267;BME280;46125;61.360;-149.532;2023-06-22T02:29:18;99659.52;;;20.99;58.52
60267;BME280;46125;61.360;-149.532;2023-06-22T02:31:46;99657.89;;;19.24;61.52
60267;BME280;46125;61.360;-149.532;2023-06-22T02:34:15;99654.15;;;20.55;58.71
60267;BME280;46125;61.360;-149.532;2023-06-22T02:36:43;99653.89;;;18.99;58.51
60267;BME280;46125;61.360;-149.532;2023-06-22T02:39:11;99655.49;;;20.22;56.08
60267;BME280;46125;61.360;-149.532;2023-06-22T02:41:40;99653.45;;;20.10;58.87
60267;BME280;46125;61.360;-149.532;2023-06-22T02:44:08;99653.02;;;21.02;56.70
60267;BME280;46125;61.360;-149.532;2023-06-22T02:46:37;99654.15;;;20.16;59.01
60267;BME280;46125;61.360;-149.532;2023-06-22T02:49:06;99658.05;;;20.55;58.67
60267;BME280;46125;61.360;-149.532;2023-06-22T02:51:34;99657.20;;;20.45;59.25
60267;BME280;46125;61.360;-149.532;2023-06-22T02:54:03;99659.81;;;20.22;59.21
60267;BME280;46125;61.360;-149.532;2023-06-22T02:56:32;99660.79;;;19.15;61.08
60267;BME280;46125;61.360;-149.532;2023-06-22T02:59:01;99664.27;;;20.63;57.85
60267;BME280;46125;61.360;-149.532;2023-06-22T03:01:39;99661.53;;;20.19;55.65
60267;BME280;46125;61.360;-149.532;2023-06-22T03:04:09;99658.19;;;20.17;58.81
60267;BME280;46125;61.360;-149.532;2023-06-22T03:06:38;99657.25;;;20.15;58.04
60267;BME280;46125;61.360;-149.532;2023-06-22T03:09:06;99656.38;;;19.79;55.70
60267;BME280;46125;61.360;-149.532;2023-06-22T03:11:36;99656.97;;;19.22;57.68
60267;BME280;46125;61.360;-149.532;2023-06-22T03:14:04;99657.47;;;19.91;56.60
60267;BME280;46125;61.360;-149.532;2023-06-22T03:16:32;99655.91;;;20.19;56.44
60267;BME280;46125;61.360;-149.532;2023-06-22T03:19:01;99654.06;;;19.75;59.52
60267;BME280;46125;61.360;-149.532;2023-06-22T03:21:29;99653.17;;;19.57;60.85
60267;BME280;46125;61.360;-149.532;2023-06-22T03:23:58;99649.70;;;19.66;59.81
60267;BME280;46125;61.360;-149.532;2023-06-22T03:26:26;99649.68;;;20.65;58.35
60267;BME280;46125;61.360;-149.532;2023-06-22T03:28:54;99648.11;;;19.64;58.55
60267;BME280;46125;61.360;-149.532;2023-06-22T03:31:23;99644.44;;;20.24;58.43
60267;BME280;46125;61.360;-149.532;2023-06-22T03:33:52;99645.29;;;20.52;57.42
60267;BME280;46125;61.360;-149.532;2023-06-22T03:36:20;99645.66;;;20.25;57.31
60267;BME280;46125;61.360;-149.532;2023-06-22T03:38:50;99642.70;;;20.30;57.57
60267;BME280;46125;61.360;-149.532;2023-06-22T03:41:19;99640.22;;;20.43;56.93
60267;BME280;46125;61.360;-149.532;2023-06-22T03:43:47;99639.11;;;20.08;57.75
60267;BME280;46125;61.360;-149.532;2023-06-22T03:46:15;99639.21;;;19.46;60.39
60267;BME280;46125;61.360;-149.532;2023-06-22T03:48:44;99639.53;;;19.43;60.65
60267;BME280;46125;61.360;-149.532;2023-06-22T03:51:12;99637.08;;;20.33;59.16
60267;BME280;46125;61.360;-149.532;2023-06-22T03:53:41;99638.55;;;19.42;60.27
60267;BME280;46125;61.360;-149.532;2023-06-22T03:56:09;99636.99;;;19.39;60.66
60267;BME280;46125;61.360;-149.532;2023-06-22T03:58:38;99638.08;;;19.91;59.63
60267;BME280;46125;61.360;-149.532;2023-06-22T04:01:07;99638.07;;;18.06;64.68
60267;BME280;46125;61.360;-149.532;2023-06-22T04:03:40;99639.34;;;19.66;60.35
60267;BME280;46125;61.360;-149.532;2023-06-22T04:06:09;99635.94;;;19.38;60.08
60267;BME280;46125;61.360;-149.532;2023-06-22T04:08:38;99635.34;;;18.19;63.15
60267;BME280;46125;61.360;-149.532;2023-06-22T04:11:11;99640.51;;;19.46;60.91
60267;BME280;46125;61.360;-149.532;2023-06-22T04:13:40;99642.27;;;19.79;59.96
60267;BME280;46125;61.360;-149.532;2023-06-22T04:16:08;99641.50;;;19.38;60.18
60267;BME280;46125;61.360;-149.532;2023-06-22T04:18:36;99636.70;;;20.15;58.57
60267;BME280;46125;61.360;-149.532;2023-06-22T04:21:05;99636.05;;;19.79;59.92
60267;BME280;46125;61.360;-149.532;2023-06-22T04:23:38;99634.14;;;20.03;58.71
60267;BME280;46125;61.360;-149.532;2023-06-22T04:26:07;99636.45;;;19.92;60.02
60267;BME280;46125;61.360;-149.532;2023-06-22T04:28:35;99639.76;;;17.76;64.54
60267;BME280;46125;61.360;-149.532;2023-06-22T04:31:04;99638.09;;;19.78;60.13
60267;BME280;46125;61.360;-149.532;2023-06-22T04:33:32;99638.19;;;19.33;60.70
60267;BME280;46125;61.360;-149.532;2023-06-22T04:36:01;99640.72;;;19.82;59.90
60267;BME280;46125;61.360;-149.532;2023-06-22T04:38:29;99644.88;;;19.96;59.83
60267;BME280;46125;61.360;-149.532;2023-06-22T04:40:58;99643.86;;;19.98;59.58
60267;BME280;46125;61.360;-149.532;2023-06-22T04:43:26;99642.31;;;19.41;61.80
60267;BME280;46125;61.360;-149.532;2023-06-22T04:45:55;99642.17;;;19.93;60.49
60267;BME280;46125;61.360;-149.532;2023-06-22T04:48:23;99647.76;;;18.78;62.51
60267;BME280;46125;61.360;-149.532;2023-06-22T04:50:52;99647.58;;;19.69;62.04
60267;BME280;46125;61.360;-149.532;2023-06-22T04:53:20;99642.98;;;18.82;63.34
60267;BME280;46125;61.360;-149.532;2023-06-22T04:55:59;99640.48;;;19.38;62.84
60267;BME280;46125;61.360;-149.532;2023-06-22T04:58:28;99639.76;;;19.29;62.11
60267;BME280;46125;61.360;-149.532;2023-06-22T05:01:01;99640.40;;;17.53;66.34
60267;BME280;46125;61.360;-149.532;2023-06-22T05:03:30;99642.59;;;19.37;62.60
60267;BME280;46125;61.360;-149.532;2023-06-22T05:05:58;99638.73;;;19.63;62.32
60267;BME280;46125;61.360;-149.532;2023-06-22T05:08:27;99640.45;;;19.51;61.71
60267;BME280;46125;61.360;-149.532;2023-06-22T05:10:56;99631.59;;;17.04;67.41
60267;BME280;46125;61.360;-149.532;2023-06-22T05:13:30;99622.82;;;19.15;63.43
60267;BME280;46125;61.360;-149.532;2023-06-22T05:15:58;99626.58;;;18.76;64.31
60267;BME280;46125;61.360;-149.532;2023-06-22T05:18:26;99630.52;;;18.89;63.45
60267;BME280;46125;61.360;-149.532;2023-06-22T05:20:56;99636.30;;;17.80;65.60
60267;BME280;46125;61.360;-149.532;2023-06-22T05:23:26;99635.50;;;19.20;61.82
60267;BME280;46125;61.360;-149.532;2023-06-22T05:25:54;99636.92;;;19.48;59.76
60267;BME280;46125;61.360;-149.532;2023-06-22T05:28:23;99636.05;;;19.95;59.55
60267;BME280;46125;61.360;-149.532;2023-06-22T05:30:51;99636.38;;;20.27;59.11
60267;BME280;46125;61.360;-149.532;2023-06-22T05:33:20;99639.37;;;19.80;60.15
60267;BME280;46125;61.360;-149.532;2023-06-22T05:35:49;99639.40;;;19.12;61.82
60267;BME280;46125;61.360;-149.532;2023-06-22T05:38:17;99641.67;;;19.59;60.98
60267;BME280;46125;61.360;-149.532;2023-06-22T05:40:45;99638.93;;;19.92;59.95
60267;BME280;46125;61.360;-149.532;2023-06-22T05:43:14;99642.57;;;19.01;60.77
60267;BME280;46125;61.360;-149.532;2023-06-22T05:45:42;99642.65;;;18.71;61.00
60267;BME280;46125;61.360;-149.532;2023-06-22T05:48:11;99638.23;;;18.61;62.00
60267;BME280;46125;61.360;-149.532;2023-06-22T05:50:41;99640.29;;;19.58;60.10
60267;BME280;46125;61.360;-149.532;2023-06-22T05:53:11;99639.54;;;18.94;61.65
60267;BME280;46125;61.360;-149.532;2023-06-22T05:55:40;99638.39;;;18.80;62.12
60267;BME280;46125;61.360;-149.532;2023-06-22T05:58:18;99638.80;;;19.04;61.30
60267;BME280;46125;61.360;-149.532;2023-06-22T06:00:46;99635.27;;;19.30;61.30
60267;BME280;46125;61.360;-149.532;2023-06-22T06:03:15;99633.86;;;18.92;63.41
60267;BME280;46125;61.360;-149.532;2023-06-22T06:05:50;99633.11;;;18.34;62.72
60267;BME280;46125;61.360;-149.532;2023-06-22T06:08:18;99633.52;;;18.61;61.71
60267;BME280;46125;61.360;-149.532;2023-06-22T06:10:47;99634.43;;;18.51;60.90
60267;BME280;46125;61.360;-149.532;2023-06-22T06:13:15;99635.02;;;19.41;60.03
60267;BME280;46125;61.360;-149.532;2023-06-22T06:15:45;99635.21;;;18.82;60.66
60267;BME280;46125;61.360;-149.532;2023-06-22T06:18:13;99635.00;;;18.99;60.28
60267;BME280;46125;61.360;-149.532;2023-06-22T06:20:43;99637.15;;;19.37;59.28
60267;BME280;46125;61.360;-149.532;2023-06-22T06:23:11;99641.05;;;18.50;62.06
60267;BME280;46125;61.360;-149.532;2023-06-22T06:25:39;99641.37;;;19.17;60.23
60267;BME280;46125;61.360;-149.532;2023-06-22T06:28:08;99641.43;;;19.32;59.06
60267;BME280;46125;61.360;-149.532;2023-06-22T06:30:36;99640.11;;;19.77;58.62
60267;BME280;46125;61.360;-149.532;2023-06-22T06:33:05;99639.99;;;18.13;62.76
60267;BME280;46125;61.360;-149.532;2023-06-22T06:35:39;99642.60;;;19.24;60.12
60267;BME280;46125;61.360;-149.532;2023-06-22T06:38:07;99642.82;;;19.30;59.67
60267;BME280;46125;61.360;-149.532;2023-06-22T06:40:35;99640.71;;;18.96;60.45
60267;BME280;46125;61.360;-149.532;2023-06-22T06:43:04;99644.42;;;19.32;60.63
60267;BME280;46125;61.360;-149.532;2023-06-22T06:45:32;99649.60;;;18.91;61.20
60267;BME280;46125;61.360;-149.532;2023-06-22T06:48:01;99651.69;;;18.87;61.16
60267;BME280;46125;61.360;-149.532;2023-06-22T06:50:30;99651.87;;;19.18;59.88
60267;BME280;46125;61.360;-149.532;2023-06-22T06:52:58;99653.67;;;19.22;58.96
60267;BME280;46125;61.360;-149.532;2023-06-22T06:55:27;99655.87;;;19.48;59.25
60267;BME280;46125;61.360;-149.532;2023-06-22T06:57:55;99657.01;;;18.75;59.99
60267;BME280;46125;61.360;-149.532;2023-06-22T07:00:24;99658.26;;;18.94;59.48
60267;BME280;46125;61.360;-149.532;2023-06-22T07:02:53;99660.80;;;17.99;62.95
60267;BME280;46125;61.360;-149.532;2023-06-22T07:05:23;99657.90;;;18.50;60.83
60267;BME280;46125;61.360;-149.532;2023-06-22T07:07:52;99656.07;;;18.96;60.27
60267;BME280;46125;61.360;-149.532;2023-06-22T07:10:20;99655.66;;;18.97;59.88
60267;BME280;46125;61.360;-149.532;2023-06-22T07:12:49;99652.64;;;18.59;60.33
60267;BME280;46125;61.360;-149.532;2023-06-22T07:15:17;99652.55;;;18.48;61.03
60267;BME280;46125;61.360;-149.532;2023-06-22T07:17:46;99653.95;;;18.59;61.33
60267;BME280;46125;61.360;-149.532;2023-06-22T07:20:14;99656.20;;;18.91;60.64
60267;BME280;46125;61.360;-149.532;2023-06-22T07:22:54;99656.36;;;18.93;60.66
60267;BME280;46125;61.360;-149.532;2023-06-22T07:25:22;99659.20;;;18.98;59.84
60267;BME280;46125;61.360;-149.532;2023-06-22T07:27:58;99656.38;;;18.91;59.23
60267;BME280;46125;61.360;-149.532;2023-06-22T07:30:27;99656.91;;;19.47;58.62
60267;BME280;46125;61.360;-149.532;2023-06-22T07:32:57;99652.28;;;18.79;59.70
60267;BME280;46125;61.360;-149.532;2023-06-22T07:35:26;99649.45;;;18.58;61.04
60267;BME280;46125;61.360;-149.532;2023-06-22T07:37:54;99648.90;;;18.61;61.77
60267;BME280;46125;61.360;-149.532;2023-06-22T07:40:23;99646.84;;;18.55;61.35
60267;BME280;46125;61.360;-149.532;2023-06-22T07:42:51;99650.08;;;18.01;62.52
60267;BME280;46125;61.360;-149.532;2023-06-22T07:45:20;99650.63;;;17.54;63.41
60267;BME280;46125;61.360;-149.532;2023-06-22T07:47:48;99648.33;;;17.93;63.92
60267;BME280;46125;61.360;-149.532;2023-06-22T07:50:16;99645.91;;;18.13;62.24
60267;BME280;46125;61.360;-149.532;2023-06-22T07:52:45;99643.71;;;18.13;61.48
60267;BME280;46125;61.360;-149.532;2023-06-22T07:55:14;99645.56;;;18.17;61.49
60267;BME280;46125;61.360;-149.532;2023-06-22T07:57:42;99638.36;;;18.36;60.32
60267;BME280;46125;61.360;-149.532;2023-06-22T08:00:11;99639.52;;;18.57;60.62
60267;BME280;46125;61.360;-149.532;2023-06-22T08:02:40;99636.97;;;18.12;60.74
60267;BME280;46125;61.360;-149.532;2023-06-22T08:05:09;99637.33;;;17.38;64.12
60267;BME280;46125;61.360;-149.532;2023-06-22T08:07:39;99639.96;;;17.17;63.61
60267;BME280;46125;61.360;-149.532;2023-06-22T08:10:11;99644.09;;;18.10;62.34
60267;BME280;46125;61.360;-149.532;2023-06-22T08:12:40;99646.30;;;18.05;62.17
60267;BME280;46125;61.360;-149.532;2023-06-22T08:15:09;99650.70;;;18.04;61.79
60267;BME280;46125;61.360;-149.532;2023-06-22T08:17:38;99655.17;;;17.38;64.50
60267;BME280;46125;61.360;-149.532;2023-06-22T08:20:08;99659.67;;;17.32;64.79
60267;BME280;46125;61.360;-149.532;2023-06-22T08:22:37;99654.20;;;17.55;64.08
60267;BME280;46125;61.360;-149.532;2023-06-22T08:25:16;99659.56;;;17.68;63.26
60267;BME280;46125;61.360;-149.532;2023-06-22T08:27:46;99656.89;;;17.87;61.95
60267;BME280;46125;61.360;-149.532;2023-06-22T08:30:16;99655.96;;;17.82;62.01
60267;BME280;46125;61.360;-149.532;2023-06-22T08:32:44;99651.14;;;18.36;60.53
60267;BME280;46125;61.360;-149.532;2023-06-22T08:35:13;99650.63;;;18.19;60.72
60267;BME280;46125;61.360;-149.532;2023-06-22T08:37:41;99654.73;;;18.31;60.19
60267;BME280;46125;61.360;-149.532;2023-06-22T08:40:11;99655.18;;;17.85;61.56
60267;BME280;46125;61.360;-149.532;2023-06-22T08:42:40;99656.95;;;18.15;60.57
60267;BME280;46125;61.360;-149.532;2023-06-22T08:45:10;99659.55;;;18.25;60.14
60267;BME280;46125;61.360;-149.532;2023-06-22T08:47:48;99665.44;;;17.75;62.15
60267;BME280;46125;61.360;-149.532;2023-06-22T08:50:17;99667.73;;;17.71;63.02
60267;BME280;46125;61.360;-149.532;2023-06-22T08:52:46;99667.52;;;17.59;62.76
60267;BME280;46125;61.360;-149.532;2023-06-22T08:55:14;99665.32;;;17.76;62.68
60267;BME280;46125;61.360;-149.532;2023-06-22T08:57:42;99664.64;;;17.83;62.28
60267;BME280;46125;61.360;-149.532;2023-06-22T09:00:11;99665.76;;;17.89;61.90
60267;BME280;46125;61.360;-149.532;2023-06-22T09:02:40;99672.11;;;17.13;63.71
60267;BME280;46125;61.360;-149.532;2023-06-22T09:05:09;99670.90;;;17.04;64.42
60267;BME280;46125;61.360;-149.532;2023-06-22T09:07:39;99666.45;;;17.72;62.43
60267;BME280;46125;61.360;-149.532;2023-06-22T09:10:08;99661.44;;;17.85;61.58
60267;BME280;46125;61.360;-149.532;2023-06-22T09:12:36;99660.63;;;17.93;61.18
60267;BME280;46125;61.360;-149.532;2023-06-22T09:15:06;99657.45;;;17.91;61.43
60267;BME280;46125;61.360;-149.532;2023-06-22T09:17:34;99654.89;;;18.09;61.64
60267;BME280;46125;61.360;-149.532;2023-06-22T09:20:08;99657.92;;;17.94;61.92
60267;BME280;46125;61.360;-149.532;2023-06-22T09:22:37;99658.23;;;17.45;63.15
60267;BME280;46125;61.360;-149.532;2023-06-22T09:25:06;99662.14;;;17.25;64.37
60267;BME280;46125;61.360;-149.532;2023-06-22T09:27:35;99661.27;;;17.08;63.85
60267;BME280;46125;61.360;-149.532;2023-06-22T09:30:04;99659.29;;;17.09;64.09
60267;BME280;46125;61.360;-149.532;2023-06-22T09:32:33;99653.65;;;17.55;62.72
60267;BME280;46125;61.360;-149.532;2023-06-22T09:35:03;99657.44;;;17.67;62.48
60267;BME280;46125;61.360;-149.532;2023-06-22T09:37:32;99660.49;;;16.93;63.38
60267;BME280;46125;61.360;-149.532;2023-06-22T09:40:01;99658.75;;;17.58;62.45
60267;BME280;46125;61.360;-149.532;2023-06-22T09:42:29;99658.72;;;17.06;63.97
60267;BME280;46125;61.360;-149.532;2023-06-22T09:44:57;99657.12;;;16.59;65.66
60267;BME280;46125;61.360;-149.532;2023-06-22T09:47:26;99650.93;;;16.34;65.92
60267;BME280;46125;61.360;-149.532;2023-06-22T09:49:54;99650.22;;;16.99;63.32
60267;BME280;46125;61.360;-149.532;2023-06-22T09:52:23;99651.12;;;17.30;62.66
60267;BME280;46125;61.360;-149.532;2023-06-22T09:54:51;99654.22;;;17.14;63.13
60267;BME280;46125;61.360;-149.532;2023-06-22T09:57:20;99659.00;;;17.33;62.54
60267;BME280;46125;61.360;-149.532;2023-06-22T09:59:48;99659.65;;;17.57;62.04
60267;BME280;46125;61.360;-149.532;2023-06-22T10:02:17;99664.20;;;17.95;61.00
60267;BME280;46125;61.360;-149.532;2023-06-22T10:04:45;99669.35;;;17.87;60.53
60267;BME280;46125;61.360;-149.532;2023-06-22T10:07:14;99669.79;;;17.72;60.00
60267;BME280;46125;61.360;-149.532;2023-06-22T10:09:43;99672.32;;;17.75;59.75
60267;BME280;46125;61.360;-149.532;2023-06-22T10:12:11;99673.89;;;17.85;59.28
60267;BME280;46125;61.360;-149.532;2023-06-22T10:14:40;99683.83;;;16.84;62.12
60267;BME280;46125;61.360;-149.532;2023-06-22T10:17:08;99684.46;;;17.23;60.46
60267;BME280;46125;61.360;-149.532;2023-06-22T10:19:37;99681.67;;;17.68;59.79
60267;BME280;46125;61.360;-149.532;2023-06-22T10:22:06;99687.10;;;16.85;61.71
60267;BME280;46125;61.360;-149.532;2023-06-22T10:24:34;99681.13;;;17.58;59.55
60267;BME280;46125;61.360;-149.532;2023-06-22T10:27:03;99675.97;;;17.70;59.09
60267;BME280;46125;61.360;-149.532;2023-06-22T10:29:31;99675.67;;;17.58;59.01
60267;BME280;46125;61.360;-149.532;2023-06-22T10:31:59;99681.60;;;18.01;58.43
60267;BME280;46125;61.360;-149.532;2023-06-22T10:34:28;99684.10;;;16.04;64.04
60267;BME280;46125;61.360;-149.532;2023-06-22T10:36:56;99687.65;;;16.94;61.92
60267;BME280;46125;61.360;-149.532;2023-06-22T10:39:24;99685.04;;;17.13;61.50
60267;BME280;46125;61.360;-149.532;2023-06-22T10:41:53;99685.08;;;17.14;61.68
60267;BME280;46125;61.360;-149.532;2023-06-22T10:44:21;99678.67;;;17.59;60.28
60267;BME280;46125;61.360;-149.532;2023-06-22T10:46:50;99676.04;;;17.66;59.52
60267;BME280;46125;61.360;-149.532;2023-06-22T10:49:18;99678.09;;;17.71;60.11
60267;BME280;46125;61.360;-149.532;2023-06-22T10:51:47;99681.31;;;17.51;60.86
60267;BME280;46125;61.360;-149.532;2023-06-22T10:54:15;99682.12;;;17.16;61.80
60267;BME280;46125;61.360;-149.532;2023-06-22T10:56:44;99681.82;;;17.18;61.90
60267;BME280;46125;61.360;-149.532;2023-06-22T10:59:12;99680.62;;;16.97;63.30
60267;BME280;46125;61.360;-149.532;2023-06-22T11:01:41;99681.74;;;16.85;63.90
60267;BME280;46125;61.360;-149.532;2023-06-22T11:04:09;99680.37;;;17.25;62.18
60267;BME280;46125;61.360;-149.532;2023-06-22T11:06:37;99676.18;;;17.63;61.22
60267;BME280;46125;61.360;-149.532;2023-06-22T11:09:06;99675.09;;;17.74;60.79
60267;BME280;46125;61.360;-149.532;2023-06-22T11:11:36;99678.19;;;17.42;60.97
60267;BME280;46125;61.360;-149.532;2023-06-22T11:14:05;99679.29;;;17.76;60.64
60267;BME280;46125;61.360;-149.532;2023-06-22T11:16:33;99679.23;;;17.98;60.74
60267;BME280;46125;61.360;-149.532;2023-06-22T11:19:02;99684.35;;;17.44;61.46
60267;BME280;46125;61.360;-149.532;2023-06-22T11:21:30;99687.30;;;17.44;61.53
60267;BME280;46125;61.360;-149.532;2023-06-22T11:23:59;99690.13;;;16.97;61.79
60267;BME280;46125;61.360;-149.532;2023-06-22T11:26:27;99688.92;;;17.70;61.16
60267;BME280;46125;61.360;-149.532;2023-06-22T11:28:56;99691.19;;;17.61;60.97
60267;BME280;46125;61.360;-149.532;2023-06-22T11:31:24;99689.89;;;17.51;61.19
60267;BME280;46125;61.360;-149.532;2023-06-22T11:33:53;99687.73;;;17.40;61.17
60267;BME280;46125;61.360;-149.532;2023-06-22T11:36:22;99686.78;;;17.51;60.98
60267;BME280;46125;61.360;-149.532;2023-06-22T11:38:50;99689.20;;;17.48;61.10
60267;BME280;46125;61.360;-149.532;2023-06-22T11:41:19;99694.80;;;17.03;62.98
60267;BME280;46125;61.360;-149.532;2023-06-22T11:43:47;99695.22;;;16.99;62.18
60267;BME280;46125;61.360;-149.532;2023-06-22T11:46:16;99694.18;;;16.87;61.96
60267;BME280;46125;61.360;-149.532;2023-06-22T11:48:44;99694.69;;;17.19;61.96
60267;BME280;46125;61.360;-149.532;2023-06-22T11:51:13;99696.65;;;17.47;61.21
60267;BME280;46125;61.360;-149.532;2023-06-22T11:53:41;99696.16;;;17.47;60.40
60267;BME280;46125;61.360;-149.532;2023-06-22T11:56:09;99694.93;;;17.66;60.43
60267;BME280;46125;61.360;-149.532;2023-06-22T11:58:38;99698.10;;;17.36;61.21
60267;BME280;46125;61.360;-149.532;2023-06-22T12:01:06;99695.53;;;16.87;62.50
60267;BME280;46125;61.360;-149.532;2023-06-22T12:03:35;99692.98;;;17.07;62.08
60267;BME280;46125;61.360;-149.532;2023-06-22T12:06:03;99691.52;;;17.40;61.21
60267;BME280;46125;61.360;-149.532;2023-06-22T12:08:31;99694.82;;;17.40;61.36
60267;BME280;46125;61.360;-149.532;2023-06-22T12:11:00;99698.78;;;17.52;61.16
60267;BME280;46125;61.360;-149.532;2023-06-22T12:13:29;99693.56;;;17.84;60.37
60267;BME280;46125;61.360;-149.532;2023-06-22T12:15:58;99691.41;;;17.78;59.93
60267;BME280;46125;61.360;-149.532;2023-06-22T12:18:26;99691.35;;;18.09;59.69
60267;BME280;46125;61.360;-149.532;2023-06-22T12:20:55;99694.08;;;17.73;60.01
60267;BME280;46125;61.360;-149.532;2023-06-22T12:23:23;99696.21;;;18.06;59.37
60267;BME280;46125;61.360;-149.532;2023-06-22T12:25:52;99693.82;;;17.62;59.96
60267;BME280;46125;61.360;-149.532;2023-06-22T12:28:20;99695.85;;;17.95;59.83
60267;BME280;46125;61.360;-149.532;2023-06-22T12:30:48;99701.05;;;18.24;59.52
60267;BME280;46125;61.360;-149.532;2023-06-22T12:33:17;99695.31;;;17.78;60.50
60267;BME280;46125;61.360;-149.532;2023-06-22T12:35:46;99697.02;;;17.74;60.67
60267;BME280;46125;61.360;-149.532;2023-06-22T12:38:15;99696.92;;;17.81;60.19
60267;BME280;46125;61.360;-149.532;2023-06-22T12:40:43;99701.48;;;17.70;60.69